createdAt,value
2024-01-20T00:01:08.943Z,35.80
2024-01-20T00:03:35.374Z,33.80
2024-01-20T00:06:01.941Z,36.45
2024-01-20T00:08:28.469Z,34.88
2024-01-20T00:10:55.111Z,37.10
2024-01-20T00:13:21.648Z,35.00
2024-01-20T00:15:48.523Z,36.63
2024-01-20T00:18:16.435Z,33.30
2024-01-20T00:20:43.045Z,38.83
2024-01-20T00:23:09.571Z,37.38
2024-01-20T00:25:36.046Z,35.75
2024-01-20T00:28:02.851Z,36.00
2024-01-20T00:30:29.376Z,34.42
2024-01-20T00:32:55.971Z,38.33
2024-01-20T00:35:24.065Z,33.35
2024-01-20T00:37:50.680Z,37.08
2024-01-20T00:40:17.152Z,36.83
2024-01-20T00:42:43.652Z,36.90
2024-01-20T00:45:10.400Z,37.17
2024-01-20T00:47:39.425Z,37.67
2024-01-20T00:50:07.495Z,35.63
2024-01-20T00:52:35.334Z,39.55
2024-01-20T00:55:01.774Z,36.13
2024-01-20T00:57:28.221Z,38.20
2024-01-20T00:59:54.637Z,38.65
2024-01-20T01:02:21.077Z,34.95
2024-01-20T01:04:47.728Z,35.97
2024-01-20T01:07:14.200Z,34.35
2024-01-20T01:09:41.931Z,38.78
2024-01-20T01:12:08.488Z,37.58
2024-01-20T01:14:35.020Z,37.42
2024-01-20T01:17:01.487Z,36.08
2024-01-20T01:19:27.955Z,36.70
2024-01-20T01:21:54.385Z,35.17
2024-01-20T01:24:20.838Z,38.72
2024-01-20T01:26:48.747Z,34.30
2024-01-20T01:29:15.275Z,32.17
2024-01-20T01:31:41.804Z,33.03
2024-01-20T01:34:08.443Z,35.20
2024-01-20T01:36:34.937Z,37.30
2024-01-20T01:39:01.373Z,36.78
2024-01-20T01:41:27.800Z,36.25
2024-01-20T01:43:55.669Z,41.35
2024-01-20T01:46:22.295Z,34.30
2024-01-20T01:48:48.916Z,34.83
2024-01-20T01:51:15.493Z,36.00
2024-01-20T01:53:42.150Z,38.85
2024-01-20T01:56:09.926Z,35.83
2024-01-20T01:58:36.409Z,37.08
2024-01-20T02:01:04.185Z,31.38
2024-01-20T02:03:30.888Z,31.67
2024-01-20T02:05:57.805Z,33.50
2024-01-20T02:08:26.015Z,34.10
2024-01-20T02:10:53.015Z,32.70
2024-01-20T02:13:19.622Z,32.47
2024-01-20T02:15:46.837Z,32.58
2024-01-20T02:18:14.901Z,32.08
2024-01-20T02:20:42.850Z,33.40
2024-01-20T02:23:10.636Z,35.17
2024-01-20T02:25:37.065Z,31.70
2024-01-20T02:28:04.101Z,36.00
2024-01-20T02:30:30.560Z,34.78
2024-01-20T02:32:57.335Z,33.40
2024-01-20T02:35:23.859Z,37.20
2024-01-20T02:37:50.448Z,36.50
2024-01-20T02:40:18.386Z,33.67
2024-01-20T02:42:44.852Z,30.30
2024-01-20T02:45:11.444Z,35.78
2024-01-20T02:47:37.919Z,32.67
2024-01-20T02:50:05.141Z,29.90
2024-01-20T02:52:31.925Z,32.03
2024-01-20T02:54:58.395Z,36.50
2024-01-20T02:57:26.158Z,40.22
2024-01-20T02:59:52.704Z,36.28
2024-01-20T03:02:19.414Z,42.45
2024-01-20T03:04:45.891Z,31.30
2024-01-20T03:07:12.316Z,33.70
2024-01-20T03:09:38.779Z,35.55
2024-01-20T03:12:06.138Z,41.55
2024-01-20T03:14:33.903Z,35.22
2024-01-20T03:17:00.374Z,38.75
2024-01-20T03:19:26.824Z,36.00
2024-01-20T03:21:53.276Z,37.90
2024-01-20T03:24:19.774Z,38.78
2024-01-20T03:26:46.359Z,37.25
2024-01-20T03:29:12.784Z,42.13
2024-01-20T03:31:40.589Z,34.85
2024-01-20T03:34:07.152Z,40.88
2024-01-20T03:36:33.649Z,34.13
2024-01-20T03:39:00.220Z,36.67
2024-01-20T03:41:26.641Z,38.75
2024-01-20T03:43:53.037Z,35.53
2024-01-20T03:46:19.492Z,39.97
2024-01-20T03:48:47.311Z,38.30
2024-01-20T03:51:13.832Z,45.03
2024-01-20T03:53:40.245Z,42.45
2024-01-20T03:56:06.670Z,35.70
2024-01-20T03:58:33.098Z,36.55
2024-01-20T04:00:59.563Z,39.75
2024-01-20T04:03:26.041Z,34.15
2024-01-20T04:05:53.823Z,39.80
2024-01-20T04:08:20.251Z,38.60
2024-01-20T04:10:46.686Z,36.17
2024-01-20T04:13:13.125Z,39.85
2024-01-20T04:15:39.586Z,37.67
2024-01-20T04:18:06.184Z,38.70
2024-01-20T04:20:32.659Z,40.67
2024-01-20T04:23:00.434Z,38.65
2024-01-20T04:25:26.854Z,38.00
2024-01-20T04:27:53.273Z,37.53
2024-01-20T04:30:19.722Z,37.60
2024-01-20T04:32:46.199Z,39.53
2024-01-20T04:35:12.754Z,36.40
2024-01-20T04:37:39.182Z,41.83
2024-01-20T04:40:08.101Z,35.88
2024-01-20T04:42:34.530Z,33.97
2024-01-20T04:45:01.036Z,36.75
2024-01-20T04:47:27.505Z,40.83
2024-01-20T04:49:54.015Z,31.27
2024-01-20T04:52:20.986Z,35.45
2024-01-20T04:54:47.403Z,31.58
2024-01-20T04:57:15.144Z,41.10
2024-01-20T04:59:41.609Z,33.85
2024-01-20T05:02:08.012Z,36.17
2024-01-20T05:04:34.629Z,32.05
2024-01-20T05:07:01.244Z,32.53
2024-01-20T05:09:27.762Z,34.63
2024-01-20T05:11:54.256Z,32.55
2024-01-20T05:14:22.073Z,30.02
2024-01-20T05:16:48.474Z,34.70
2024-01-20T05:19:15.047Z,31.25
2024-01-20T05:21:41.614Z,32.30
2024-01-20T05:24:08.102Z,33.03
2024-01-20T05:26:34.533Z,30.27
2024-01-20T05:29:01.006Z,32.80
2024-01-20T05:31:28.821Z,32.95
2024-01-20T05:33:55.481Z,30.20
2024-01-20T05:36:21.958Z,32.67
2024-01-20T05:38:48.499Z,28.23
2024-01-20T05:41:14.949Z,28.17
2024-01-20T05:43:41.464Z,31.55
2024-01-20T05:46:07.999Z,33.15
2024-01-20T05:48:36.362Z,26.33
2024-01-20T05:51:03.539Z,30.75
2024-01-20T05:53:29.997Z,31.08
2024-01-20T05:55:56.425Z,25.27
2024-01-20T05:58:22.874Z,30.40
2024-01-20T06:00:49.435Z,31.88
2024-01-20T06:03:15.870Z,30.58
2024-01-20T06:05:43.666Z,30.23
2024-01-20T06:08:10.136Z,24.50
2024-01-20T06:10:36.622Z,31.00
2024-01-20T06:13:03.317Z,32.13
2024-01-20T06:15:29.826Z,27.05
2024-01-20T06:17:56.383Z,29.00
2024-01-20T06:20:22.803Z,30.42
2024-01-20T06:22:50.526Z,26.70
2024-01-20T06:25:16.939Z,30.65
2024-01-20T06:27:43.380Z,28.27
2024-01-20T06:30:11.034Z,35.63
2024-01-20T06:32:37.529Z,28.88
2024-01-20T06:35:04.576Z,25.27
2024-01-20T06:37:31.010Z,25.70
2024-01-20T06:39:58.805Z,28.95
2024-01-20T06:42:25.434Z,25.33
2024-01-20T06:44:51.883Z,29.58
2024-01-20T06:47:18.450Z,27.60
2024-01-20T06:49:45.010Z,32.67
2024-01-20T06:52:11.460Z,27.27
2024-01-20T06:54:38.171Z,31.60
2024-01-20T06:57:06.163Z,25.52
2024-01-20T06:59:32.603Z,26.20
2024-01-20T07:01:59.014Z,25.10
2024-01-20T07:04:25.543Z,25.15
2024-01-20T07:06:52.061Z,30.08
2024-01-20T07:09:18.524Z,27.88
2024-01-20T07:11:44.961Z,26.50
2024-01-20T07:14:12.689Z,28.45
2024-01-20T07:16:39.112Z,27.58
2024-01-20T07:19:05.648Z,29.95
2024-01-20T07:21:32.158Z,27.77
2024-01-20T07:23:58.619Z,27.10
2024-01-20T07:26:25.047Z,26.13
2024-01-20T07:28:51.471Z,27.48
2024-01-20T07:31:19.242Z,26.77
2024-01-20T07:33:45.842Z,31.25
2024-01-20T07:36:12.351Z,29.38
2024-01-20T07:38:38.783Z,27.33
2024-01-20T07:41:05.302Z,28.60
2024-01-20T07:43:31.668Z,30.77
2024-01-20T07:45:58.128Z,25.38
2024-01-20T07:48:26.246Z,30.88
2024-01-20T07:50:52.832Z,28.70
2024-01-20T07:53:19.376Z,24.27
2024-01-20T07:55:45.789Z,27.92
2024-01-20T07:58:12.255Z,27.40
2024-01-20T08:00:38.904Z,29.85
2024-01-20T08:03:05.513Z,32.50
2024-01-20T08:05:35.594Z,29.85
2024-01-20T08:08:02.404Z,24.73
2024-01-20T08:10:28.811Z,26.38
2024-01-20T08:12:56.283Z,35.83
2024-01-20T08:15:22.763Z,26.15
2024-01-20T08:17:49.925Z,25.27
2024-01-20T08:20:16.488Z,29.38
2024-01-20T08:22:44.535Z,25.85
2024-01-20T08:25:11.659Z,28.00
2024-01-20T08:27:38.127Z,32.03
2024-01-20T08:30:05.995Z,25.25
2024-01-20T08:32:32.608Z,33.17
2024-01-20T08:34:59.279Z,24.40
2024-01-20T08:37:25.700Z,29.85
2024-01-20T08:39:53.439Z,31.92
2024-01-20T08:42:19.861Z,26.65
2024-01-20T08:44:46.253Z,28.92
2024-01-20T08:47:12.690Z,26.05
2024-01-20T08:49:39.174Z,29.45
2024-01-20T08:52:06.445Z,23.83
2024-01-20T08:54:32.944Z,25.85
2024-01-20T08:57:00.765Z,23.83
2024-01-20T08:59:27.208Z,26.73
2024-01-20T09:01:53.770Z,24.60
2024-01-20T09:04:20.227Z,22.25
2024-01-20T09:06:46.706Z,27.23
2024-01-20T09:09:13.350Z,27.80
2024-01-20T09:11:39.815Z,24.38
2024-01-20T09:14:07.552Z,26.02
2024-01-20T09:16:34.277Z,30.55
2024-01-20T09:19:00.866Z,26.55
2024-01-20T09:21:27.437Z,27.83
2024-01-20T09:23:54.098Z,23.05
2024-01-20T09:26:20.582Z,25.48
2024-01-20T09:28:47.049Z,28.00
2024-01-20T09:31:14.929Z,26.27
2024-01-20T09:33:41.469Z,23.58
2024-01-20T09:36:08.120Z,27.25
2024-01-20T09:38:34.571Z,26.85
2024-01-20T09:41:01.530Z,26.58
2024-01-20T09:43:28.431Z,26.13
2024-01-20T09:45:55.676Z,23.38
2024-01-20T09:48:24.141Z,28.35
2024-01-20T09:50:50.732Z,25.48
2024-01-20T09:53:19.070Z,21.88
2024-01-20T09:55:46.741Z,28.25
2024-01-20T09:58:14.381Z,25.65
2024-01-20T10:00:42.104Z,21.58
2024-01-20T10:03:10.724Z,25.23
2024-01-20T10:05:39.104Z,23.20
2024-01-20T10:08:06.478Z,22.02
2024-01-20T10:10:33.023Z,18.23
2024-01-20T10:12:59.814Z,26.65
2024-01-20T10:15:30.926Z,24.08
2024-01-20T10:17:59.835Z,22.80
2024-01-20T10:20:27.746Z,23.52
2024-01-20T10:22:55.484Z,22.08
2024-01-20T10:25:22.092Z,18.77
2024-01-20T10:27:50.026Z,19.88
2024-01-20T10:30:19.300Z,24.27
2024-01-20T10:32:57.681Z,23.52
2024-01-20T10:35:33.822Z,20.40
2024-01-20T10:38:01.919Z,18.30
2024-01-20T10:40:28.324Z,19.92
2024-01-20T10:42:56.953Z,18.58
2024-01-20T10:45:25.071Z,17.30
2024-01-20T10:48:05.777Z,23.38
2024-01-20T10:50:35.000Z,19.55
2024-01-20T10:53:04.126Z,19.40
2024-01-20T10:55:31.923Z,25.02
2024-01-20T10:57:59.556Z,17.98
2024-01-20T11:00:26.042Z,20.42
2024-01-20T11:02:52.702Z,19.52
2024-01-20T11:05:21.921Z,21.55
2024-01-20T11:07:58.884Z,20.35
2024-01-20T11:10:27.288Z,18.92
2024-01-20T11:13:00.570Z,20.17
2024-01-20T11:15:29.510Z,17.67
2024-01-20T11:17:56.129Z,18.25
2024-01-20T11:20:22.737Z,15.25
2024-01-20T11:22:49.393Z,21.90
2024-01-20T11:25:15.816Z,16.95
2024-01-20T11:27:48.463Z,21.58
2024-01-20T11:30:24.435Z,20.33
2024-01-20T11:32:51.350Z,19.42
2024-01-20T11:35:17.791Z,19.17
2024-01-20T11:37:44.808Z,20.02
2024-01-20T11:40:12.006Z,17.23
2024-01-20T11:42:38.454Z,14.63
2024-01-20T11:45:07.535Z,29.83
2024-01-20T11:47:34.197Z,20.60
2024-01-20T11:50:01.114Z,19.85
2024-01-20T11:52:27.927Z,16.77
2024-01-20T11:54:54.865Z,18.95
2024-01-20T11:57:21.586Z,21.70
2024-01-20T11:59:48.385Z,35.35
2024-01-20T12:02:16.729Z,15.88
2024-01-20T12:04:43.384Z,14.80
2024-01-20T12:07:10.247Z,16.58
2024-01-20T12:09:36.809Z,17.30
2024-01-20T12:12:04.299Z,18.00
2024-01-20T12:14:30.968Z,15.77
2024-01-20T12:16:57.953Z,15.68
2024-01-20T12:19:25.837Z,19.10
2024-01-20T12:21:52.406Z,19.50
2024-01-20T12:24:18.898Z,18.80
2024-01-20T12:26:45.361Z,14.68
2024-01-20T12:29:11.756Z,14.43
2024-01-20T12:31:38.224Z,19.10
2024-01-20T12:34:04.854Z,16.75
2024-01-20T12:36:32.797Z,15.18
2024-01-20T12:38:59.267Z,14.20
2024-01-20T12:41:25.747Z,15.68
2024-01-20T12:43:52.209Z,19.73
2024-01-20T12:46:18.835Z,15.82
2024-01-20T12:48:45.739Z,18.30
2024-01-20T12:51:12.895Z,16.60
2024-01-20T12:53:40.738Z,17.73
2024-01-20T12:56:07.384Z,15.15
2024-01-20T12:58:33.814Z,15.82
2024-01-20T13:01:00.466Z,14.88
2024-01-20T13:03:26.967Z,12.30
2024-01-20T13:05:53.550Z,15.57
2024-01-20T13:08:20.101Z,14.73
2024-01-20T13:10:48.488Z,12.95
2024-01-20T13:15:42.697Z,16.63
2024-01-20T13:18:09.362Z,14.15
2024-01-20T13:20:36.259Z,14.63
2024-01-20T13:23:02.907Z,11.93
2024-01-20T13:25:30.026Z,16.52
2024-01-20T13:27:57.880Z,10.68
2024-01-20T13:30:24.506Z,14.07
2024-01-20T13:32:50.959Z,15.05
2024-01-20T13:35:17.584Z,13.30
2024-01-20T13:37:44.065Z,15.30
2024-01-20T13:40:11.677Z,15.90
2024-01-20T13:42:39.861Z,13.05
2024-01-20T13:45:09.390Z,13.70
2024-01-20T13:47:37.274Z,15.27
2024-01-20T13:50:04.347Z,12.80
2024-01-20T13:52:30.981Z,15.43
2024-01-20T13:54:57.514Z,14.13
2024-01-20T13:57:25.254Z,13.38
2024-01-20T13:59:51.699Z,12.38
2024-01-20T14:02:19.520Z,13.18
2024-01-20T14:04:45.909Z,13.70
2024-01-20T14:07:12.550Z,15.77
2024-01-20T14:09:39.111Z,13.90
2024-01-20T14:12:06.641Z,15.07
2024-01-20T14:14:33.193Z,13.05
2024-01-20T14:16:59.769Z,12.75
2024-01-20T14:19:27.658Z,13.20
2024-01-20T14:21:54.227Z,15.20
2024-01-20T14:24:20.714Z,10.60
2024-01-20T14:26:47.371Z,14.98
2024-01-20T14:29:14.246Z,12.25
2024-01-20T14:31:47.705Z,14.27
2024-01-20T14:34:14.349Z,12.70
2024-01-20T14:36:43.008Z,14.00
2024-01-20T14:39:09.658Z,10.68
2024-01-20T14:41:36.162Z,18.13
2024-01-20T14:44:02.622Z,18.05
2024-01-20T14:46:29.030Z,15.27
2024-01-20T14:48:55.708Z,11.90
2024-01-20T14:51:22.347Z,15.13
2024-01-20T14:53:50.393Z,14.15
2024-01-20T14:56:16.820Z,12.57
2024-01-20T14:58:43.410Z,12.57
2024-01-20T15:01:09.826Z,16.20
2024-01-20T15:03:36.359Z,10.15
2024-01-20T15:06:03.032Z,11.95
2024-01-20T15:08:29.483Z,11.18
2024-01-20T15:10:57.397Z,14.05
2024-01-20T15:13:23.818Z,13.52
2024-01-20T15:15:50.645Z,11.10
2024-01-20T15:18:17.275Z,12.88
2024-01-20T15:20:44.661Z,9.95
2024-01-20T15:25:47.801Z,12.38
2024-01-20T15:28:14.586Z,11.85
2024-01-20T15:30:41.379Z,12.98
2024-01-20T15:33:08.087Z,14.35
2024-01-20T15:35:34.525Z,9.20
2024-01-20T15:38:02.519Z,15.30
2024-01-20T15:40:32.244Z,15.20
2024-01-20T15:43:00.096Z,12.32
2024-01-20T15:45:26.609Z,10.18
2024-01-20T15:47:53.133Z,8.65
2024-01-20T15:50:19.568Z,14.43
2024-01-20T15:52:45.978Z,10.63
2024-01-20T15:55:12.540Z,9.23
2024-01-20T15:57:39.156Z,10.30
2024-01-20T16:00:08.312Z,11.13
2024-01-20T16:02:35.361Z,12.57
2024-01-20T16:05:01.821Z,11.18
2024-01-20T16:07:28.252Z,10.68
2024-01-20T16:09:54.862Z,11.32
2024-01-20T16:12:21.317Z,12.07
2024-01-20T16:14:48.815Z,14.73
2024-01-20T16:17:16.587Z,13.70
2024-01-20T16:19:43.085Z,13.23
2024-01-20T16:22:09.566Z,16.45
2024-01-20T16:24:36.169Z,18.52
2024-01-20T16:27:02.820Z,24.17
2024-01-20T16:29:29.367Z,22.10
2024-01-20T16:31:55.905Z,23.70
2024-01-20T16:34:23.896Z,24.70
2024-01-20T16:36:50.789Z,23.95
2024-01-20T16:39:17.689Z,24.23
2024-01-20T16:41:44.156Z,21.50
2024-01-20T16:44:10.636Z,25.45
2024-01-20T16:46:38.271Z,23.10
2024-01-20T16:49:05.083Z,16.80
2024-01-20T16:51:32.919Z,13.90
2024-01-20T16:53:59.404Z,17.63
2024-01-20T16:56:25.879Z,13.77
2024-01-20T16:58:52.295Z,17.88
2024-01-20T17:01:18.805Z,17.27
2024-01-20T17:03:45.326Z,15.65
2024-01-20T17:06:11.819Z,16.58
2024-01-20T17:08:39.602Z,14.10
2024-01-20T17:11:06.012Z,13.00
2024-01-20T17:13:32.554Z,16.90
2024-01-20T17:15:59.094Z,14.77
2024-01-20T17:18:25.675Z,12.93
2024-01-20T17:20:52.148Z,14.80
2024-01-20T17:23:18.637Z,13.38
2024-01-20T17:25:46.405Z,12.27
2024-01-20T17:28:12.893Z,15.43
2024-01-20T17:30:39.493Z,15.82
2024-01-20T17:33:06.056Z,14.23
2024-01-20T17:35:32.637Z,17.35
2024-01-20T17:37:59.080Z,16.13
2024-01-20T17:40:25.460Z,14.35
2024-01-20T17:42:53.286Z,14.38
2024-01-20T17:45:19.919Z,15.30
2024-01-20T17:47:46.444Z,14.70
2024-01-20T17:50:13.184Z,15.57
2024-01-20T17:52:39.766Z,22.63
2024-01-20T17:55:07.158Z,20.52
2024-01-20T17:57:33.637Z,21.58
2024-01-20T18:00:01.839Z,16.48
2024-01-20T18:02:28.241Z,15.93
2024-01-20T18:04:54.809Z,13.15
2024-01-20T18:07:21.338Z,16.08
2024-01-20T18:09:47.736Z,12.02
2024-01-20T18:12:14.235Z,14.25
2024-01-20T18:14:40.676Z,11.65
2024-01-20T18:17:10.795Z,12.63
2024-01-20T18:19:38.044Z,12.55
2024-01-20T18:22:07.490Z,11.93
2024-01-20T18:24:33.911Z,17.50
2024-01-20T18:27:00.509Z,14.75
2024-01-20T18:29:26.926Z,14.88
2024-01-20T18:31:53.375Z,12.82
2024-01-20T18:34:21.353Z,10.88
2024-01-20T18:36:47.892Z,14.15
2024-01-20T18:39:14.336Z,18.60
2024-01-20T18:41:41.029Z,12.25
2024-01-20T18:44:07.451Z,13.43
2024-01-20T18:46:33.882Z,12.73
2024-01-20T18:49:00.457Z,11.73
2024-01-20T18:51:28.409Z,11.13
2024-01-20T18:53:54.828Z,12.30
2024-01-20T18:56:21.334Z,13.18
2024-01-20T18:58:47.751Z,11.18
2024-01-20T19:01:14.274Z,9.32
2024-01-20T19:03:41.866Z,12.88
2024-01-20T19:06:08.534Z,9.50
2024-01-20T19:08:38.537Z,11.93
2024-01-20T19:11:05.506Z,11.13
2024-01-20T19:13:31.927Z,12.63
2024-01-20T19:15:58.414Z,12.00
2024-01-20T19:18:24.942Z,12.75
2024-01-20T19:20:51.511Z,12.32
2024-01-20T19:23:17.903Z,11.57
2024-01-20T19:25:45.678Z,12.15
2024-01-20T19:28:12.144Z,13.85
2024-01-20T19:30:38.574Z,11.50
2024-01-20T19:33:06.150Z,17.77
2024-01-20T19:35:32.941Z,13.85
2024-01-20T19:38:00.172Z,15.20
2024-01-20T19:40:26.571Z,13.27
2024-01-20T19:42:54.369Z,15.55
2024-01-20T19:45:20.809Z,14.60
2024-01-20T19:47:47.375Z,11.15
2024-01-20T19:50:13.856Z,15.02
2024-01-20T19:52:40.261Z,11.52
2024-01-20T19:55:07.258Z,13.68
2024-01-20T19:57:33.752Z,13.32
2024-01-20T20:00:01.508Z,15.48
2024-01-20T20:02:27.967Z,13.90
2024-01-20T20:04:54.435Z,13.70
2024-01-20T20:07:20.834Z,13.68
2024-01-20T20:09:47.318Z,13.48
2024-01-20T20:12:13.799Z,13.77
2024-01-20T20:14:40.221Z,9.63
2024-01-20T20:17:07.996Z,10.73
2024-01-20T20:19:34.535Z,13.30
2024-01-20T20:22:00.991Z,9.13
2024-01-20T20:24:27.569Z,8.95
2024-01-20T20:26:54.027Z,10.95
2024-01-20T20:29:20.473Z,13.40
2024-01-20T20:31:47.143Z,11.05
2024-01-20T20:34:15.154Z,13.00
2024-01-20T20:36:41.699Z,12.32
2024-01-20T20:39:08.204Z,12.00
2024-01-20T20:41:34.656Z,14.43
2024-01-20T20:44:01.107Z,11.90
2024-01-20T20:46:27.779Z,11.13
2024-01-20T20:48:54.291Z,13.32
2024-01-20T20:51:22.394Z,12.18
2024-01-20T20:53:48.856Z,13.43
2024-01-20T20:56:15.324Z,11.95
2024-01-20T20:58:43.959Z,10.38
2024-01-20T21:01:10.755Z,13.50
2024-01-20T21:03:37.525Z,10.70
2024-01-20T21:06:04.604Z,10.50
2024-01-20T21:08:32.382Z,11.20
2024-01-20T21:10:58.799Z,14.18
2024-01-20T21:13:25.261Z,10.55
2024-01-20T21:15:51.837Z,11.13
2024-01-20T21:18:18.511Z,11.52
2024-01-20T21:20:45.211Z,8.90
2024-01-20T21:23:11.930Z,12.00
2024-01-20T21:25:39.910Z,11.02
2024-01-20T21:28:06.803Z,13.15
2024-01-20T21:30:33.644Z,12.57
2024-01-20T21:33:00.253Z,13.15
2024-01-20T21:35:26.774Z,11.48
2024-01-20T21:37:53.243Z,10.50
2024-01-20T21:40:20.057Z,12.40
2024-01-20T21:42:48.070Z,13.75
2024-01-20T21:45:14.924Z,11.43
2024-01-20T21:47:41.475Z,11.88
2024-01-20T21:50:08.548Z,10.60
2024-01-20T21:52:35.028Z,12.68
2024-01-20T21:55:01.494Z,13.27
2024-01-20T21:57:27.942Z,11.65
2024-01-20T21:59:55.717Z,13.40
2024-01-20T22:02:22.155Z,13.38
2024-01-20T22:04:48.584Z,13.05
2024-01-20T22:07:15.013Z,13.23
2024-01-20T22:09:41.506Z,13.93
2024-01-20T22:12:08.243Z,15.20
2024-01-20T22:14:34.728Z,18.20
2024-01-20T22:17:02.506Z,12.77
2024-01-20T22:19:29.102Z,13.27
2024-01-20T22:21:55.658Z,14.02
2024-01-20T22:24:22.185Z,13.30
2024-01-20T22:26:48.637Z,11.98
2024-01-20T22:29:24.034Z,14.93
2024-01-20T22:31:57.321Z,12.75
2024-01-20T22:34:25.426Z,15.13
2024-01-20T22:36:51.987Z,15.40
2024-01-20T22:39:18.547Z,17.63
2024-01-20T22:41:45.454Z,13.88
2024-01-20T22:44:11.905Z,16.50
2024-01-20T22:46:38.421Z,13.07
2024-01-20T22:49:04.875Z,14.77
2024-01-20T22:51:32.753Z,12.95
2024-01-20T22:53:59.253Z,12.77
2024-01-20T22:56:25.640Z,12.77
2024-01-20T22:58:52.100Z,15.80
2024-01-20T23:01:18.687Z,13.23
2024-01-20T23:03:45.428Z,14.27
2024-01-20T23:06:12.184Z,15.18
2024-01-20T23:08:40.131Z,15.65
2024-01-20T23:11:06.605Z,17.58
2024-01-20T23:13:33.047Z,15.40
2024-01-20T23:15:59.600Z,12.60
2024-01-20T23:18:26.091Z,12.63
2024-01-20T23:20:52.634Z,12.65
2024-01-20T23:23:19.089Z,13.27
2024-01-20T23:25:46.823Z,14.25
2024-01-20T23:28:13.383Z,13.48
2024-01-20T23:30:39.904Z,13.45
2024-01-20T23:33:06.449Z,10.95
2024-01-20T23:35:32.905Z,10.43
2024-01-20T23:37:59.313Z,16.92
2024-01-20T23:40:25.741Z,12.50
2024-01-20T23:42:53.497Z,16.60
2024-01-20T23:45:20.014Z,14.40
2024-01-20T23:47:46.536Z,13.43
2024-01-20T23:50:13.318Z,12.90
2024-01-20T23:52:39.809Z,10.98
2024-01-20T23:55:06.705Z,13.10
2024-01-20T23:57:33.185Z,12.43
